createdAt,value
2022-12-01T00:01:11.522Z,99579.72
2022-12-01T00:04:17.146Z,99574.22
2022-12-01T00:07:20.585Z,99578.34
2022-12-01T00:10:26.388Z,99568.75
2022-12-01T00:13:30.153Z,99574.25
2022-12-01T00:16:34.959Z,99571.75
2022-12-01T00:19:39.857Z,99574.50
2022-12-01T00:22:44.800Z,99570.38
2022-12-01T00:25:48.449Z,99567.09
2022-12-01T00:28:53.384Z,99564.88
2022-12-01T00:31:57.136Z,99557.75
2022-12-01T00:35:02.257Z,99564.06
2022-12-01T00:38:06.358Z,99566.53
2022-12-01T00:41:10.610Z,99568.47
2022-12-01T00:44:13.882Z,99571.47
2022-12-01T00:47:17.824Z,99559.69
2022-12-01T00:50:24.974Z,99562.16
2022-12-01T00:53:33.002Z,99557.19
2022-12-01T00:56:36.933Z,99555.53
2022-12-01T00:59:41.210Z,99556.66
2022-12-01T01:02:44.803Z,99556.91
2022-12-01T01:05:49.896Z,99559.38
2022-12-01T01:08:53.562Z,99557.19
2022-12-01T01:11:57.249Z,99558.84
2022-12-01T01:15:00.657Z,99550.59
2022-12-01T01:18:05.327Z,99556.34
2022-12-01T01:21:14.644Z,99559.66
2022-12-01T01:24:18.544Z,99554.72
2022-12-01T01:27:22.212Z,99558.28
2022-12-01T01:30:26.214Z,99553.88
2022-12-01T01:33:31.364Z,99551.69
2022-12-01T01:36:36.423Z,99547.31
2022-12-01T01:39:40.001Z,99547.31
2022-12-01T01:42:43.721Z,99545.66
2022-12-01T01:45:49.420Z,99550.03
2022-12-01T01:49:00.695Z,99539.88
2022-12-01T01:52:06.106Z,99550.03
2022-12-01T01:55:12.280Z,99536.31
2022-12-01T01:58:16.149Z,99531.91
2022-12-01T02:01:19.984Z,99534.66
2022-12-01T02:04:26.144Z,99537.13
2022-12-01T02:07:31.281Z,99537.13
2022-12-01T02:10:59.664Z,99539.63
2022-12-01T02:14:14.855Z,99538.25
2022-12-01T02:17:35.245Z,99541.81
2022-12-01T02:21:17.666Z,99537.97
2022-12-01T02:25:02.909Z,99535.50
2022-12-01T02:28:48.297Z,99533.59
2022-12-01T02:32:05.622Z,99546.75
2022-12-01T02:35:22.465Z,99544.00
2022-12-01T02:38:32.568Z,99537.97
2022-12-01T02:41:44.958Z,99538.78
2022-12-01T02:44:50.048Z,99537.69
2022-12-01T02:48:01.351Z,99535.75
2022-12-01T02:51:14.213Z,99527.53
2022-12-01T02:54:20.470Z,99534.38
2022-12-01T02:57:25.438Z,99527.28
2022-12-01T03:00:32.198Z,99534.69
2022-12-01T03:04:03.752Z,99529.44
2022-12-01T03:07:24.266Z,99533.03
2022-12-01T03:10:42.094Z,99522.31
2022-12-01T03:13:58.584Z,99536.88
2022-12-01T03:17:12.081Z,99525.88
2022-12-01T03:20:28.866Z,99518.75
2022-12-01T03:23:38.977Z,99524.25
2022-12-01T03:26:47.868Z,99525.34
2022-12-01T03:29:56.940Z,99527.53
2022-12-01T03:33:09.648Z,99525.34
2022-12-01T03:36:25.496Z,99521.75
2022-12-01T03:39:34.755Z,99519.28
2022-12-01T03:42:45.748Z,99515.44
2022-12-01T03:45:59.485Z,99520.94
2022-12-01T03:49:03.826Z,99522.03
2022-12-01T03:52:22.177Z,99520.66
2022-12-01T03:55:30.147Z,99521.50
2022-12-01T03:58:42.518Z,99523.16
2022-12-01T04:01:47.046Z,99513.00
2022-12-01T04:04:50.833Z,99513.81
2022-12-01T04:07:55.950Z,99515.47
2022-12-01T04:10:59.685Z,99507.22
2022-12-01T04:14:02.264Z,99505.31
2022-12-01T04:17:05.797Z,99504.50
2022-12-01T04:20:11.697Z,99506.13
2022-12-01T04:23:31.267Z,99509.69
2022-12-01T04:26:37.381Z,99502.00
2022-12-01T04:29:41.321Z,99509.41
2022-12-01T04:32:45.620Z,99503.94
2022-12-01T04:35:58.841Z,99496.25
2022-12-01T04:39:04.887Z,99505.03
2022-12-01T04:42:08.941Z,99509.97
2022-12-01T04:45:12.490Z,99506.38
2022-12-01T04:48:16.179Z,99504.75
2022-12-01T04:51:21.297Z,99508.59
2022-12-01T04:54:26.802Z,99501.44
2022-12-01T04:57:30.508Z,99503.63
2022-12-01T05:00:34.825Z,99506.69
2022-12-01T05:03:39.476Z,99498.44
2022-12-01T05:06:43.428Z,99495.97
2022-12-01T05:09:48.600Z,99505.53
2022-12-01T05:12:52.991Z,99501.47
2022-12-01T05:16:07.492Z,99500.06
2022-12-01T05:19:28.771Z,99493.50
2022-12-01T05:23:03.886Z,99505.56
2022-12-01T05:25:58.272Z,99504.75
2022-12-01T05:29:02.052Z,99510.22
2022-12-01T05:32:06.451Z,99505.56
2022-12-01T05:35:10.630Z,99505.56
2022-12-01T05:38:16.715Z,99507.47
2022-12-01T05:41:22.307Z,99507.22
2022-12-01T05:44:25.837Z,99510.22
2022-12-01T05:47:29.418Z,99510.78
2022-12-01T05:50:33.120Z,99509.41
2022-12-01T05:53:37.549Z,99503.94
2022-12-01T05:56:42.554Z,99514.06
2022-12-01T05:59:46.149Z,99517.94
2022-12-01T06:02:49.759Z,99520.13
2022-12-01T06:05:53.291Z,99522.84
2022-12-01T06:08:56.757Z,99522.31
2022-12-01T06:12:01.494Z,99537.72
2022-12-01T06:15:07.384Z,99536.88
2022-12-01T06:18:11.249Z,99539.34
2022-12-01T06:21:14.990Z,99530.03
2022-12-01T06:24:18.423Z,99530.28
2022-12-01T06:27:23.536Z,99527.56
2022-12-01T06:30:27.512Z,99539.63
2022-12-01T06:33:31.664Z,99545.66
2022-12-01T06:36:35.604Z,99542.91
2022-12-01T06:39:39.292Z,99552.50
2022-12-01T06:42:44.388Z,99547.84
2022-12-01T06:45:48.125Z,99557.16
2022-12-01T06:48:51.779Z,99558.81
2022-12-01T06:51:55.527Z,99557.16
2022-12-01T06:55:00.221Z,99554.41
2022-12-01T06:58:05.720Z,99552.50
2022-12-01T07:01:11.071Z,99559.38
2022-12-01T07:04:14.968Z,99556.91
2022-12-01T07:07:18.627Z,99558.81
2022-12-01T07:10:22.372Z,99565.41
2022-12-01T07:13:32.815Z,99567.06
2022-12-01T07:16:37.350Z,99569.53
2022-12-01T07:19:40.688Z,99562.94
2022-12-01T07:22:44.226Z,99567.59
2022-12-01T07:25:47.758Z,99573.09
2022-12-01T07:28:54.404Z,99570.91
2022-12-01T07:31:57.733Z,99577.75
2022-12-01T07:35:01.513Z,99570.88
2022-12-01T07:38:05.045Z,99575.84
2022-12-01T07:41:11.641Z,99573.91
2022-12-01T07:44:16.870Z,99569.25
2022-12-01T07:47:20.513Z,99577.22
2022-12-01T07:50:24.025Z,99584.91
2022-12-01T07:53:27.591Z,99584.63
2022-12-01T07:56:31.382Z,99577.50
2022-12-01T07:59:36.398Z,99576.41
2022-12-01T08:02:40.011Z,99577.50
2022-12-01T08:05:43.680Z,99579.44
2022-12-01T08:08:47.794Z,99566.25
2022-12-01T08:11:51.267Z,99572.56
2022-12-01T08:14:56.236Z,99568.44
2022-12-01T08:18:03.705Z,99573.69
2022-12-01T08:21:09.525Z,99569.84
2022-12-01T08:24:13.009Z,99581.63
2022-12-01T08:27:16.674Z,99580.28
2022-12-01T08:30:22.071Z,99582.47
2022-12-01T08:33:25.801Z,99582.47
2022-12-01T08:36:29.400Z,99584.66
2022-12-01T08:39:32.943Z,99589.06
2022-12-01T08:42:36.526Z,99578.09
2022-12-01T08:45:41.188Z,99580.00
2022-12-01T08:48:44.848Z,99588.50
2022-12-01T08:51:48.327Z,99589.31
2022-12-01T08:54:51.960Z,99594.81
2022-12-01T08:57:55.650Z,99585.22
2022-12-01T09:01:07.802Z,99592.91
2022-12-01T09:04:11.330Z,99591.81
2022-12-01T09:07:19.150Z,99597.28
2022-12-01T09:10:26.480Z,99582.47
2022-12-01T09:13:31.328Z,99589.06
2022-12-01T09:16:36.742Z,99590.16
2022-12-01T09:19:40.639Z,99586.31
2022-12-01T09:22:44.176Z,99580.84
2022-12-01T09:25:47.825Z,99577.53
2022-12-01T09:28:55.365Z,99573.16
2022-12-01T09:32:01.963Z,99580.31
2022-12-01T09:35:05.907Z,99576.19
2022-12-01T09:38:09.916Z,99568.47
2022-12-01T09:41:20.284Z,99572.06
2022-12-01T09:44:40.043Z,99567.09
2022-12-01T09:47:46.669Z,99556.63
2022-12-01T09:50:50.299Z,99557.72
2022-12-01T09:53:58.179Z,99548.69
2022-12-01T09:57:02.019Z,99551.16
2022-12-01T10:00:13.821Z,99545.13
2022-12-01T10:03:34.626Z,99547.03
2022-12-01T10:06:46.218Z,99550.59
2022-12-01T10:09:57.911Z,99553.91
2022-12-01T10:13:01.541Z,99547.84
2022-12-01T10:16:12.221Z,99548.41
2022-12-01T10:19:26.345Z,99552.53
2022-12-01T10:23:07.973Z,99544.00
2022-12-01T10:26:17.673Z,99545.94
2022-12-01T10:29:35.263Z,99546.47
2022-12-01T10:32:52.327Z,99546.19
2022-12-01T10:35:59.048Z,99544.84
2022-12-01T10:39:03.666Z,99530.00
2022-12-01T10:42:14.644Z,99533.28
2022-12-01T10:45:24.161Z,99540.72
2022-12-01T10:48:28.024Z,99526.41
2022-12-01T10:51:33.504Z,99530.53
2022-12-01T10:54:42.340Z,99526.44
2022-12-01T10:57:46.702Z,99520.94
2022-12-01T11:01:00.406Z,99526.41
2022-12-01T11:04:09.432Z,99517.88
2022-12-01T11:07:23.054Z,99532.97
2022-12-01T11:10:30.209Z,99527.50
2022-12-01T11:13:38.016Z,99519.00
2022-12-01T11:16:45.163Z,99522.84
2022-12-01T11:19:49.782Z,99512.16
2022-12-01T11:23:15.314Z,99505.28
2022-12-01T11:26:25.136Z,99520.13
2022-12-01T11:29:36.607Z,99525.34
2022-12-01T11:32:41.180Z,99520.91
2022-12-01T11:35:50.831Z,99518.16
2022-12-01T11:39:02.501Z,99504.97
2022-12-01T11:42:20.805Z,99512.94
2022-12-01T11:45:34.844Z,99511.25
2022-12-01T11:48:38.320Z,99510.16
2022-12-01T11:51:42.213Z,99513.69
2022-12-01T11:54:58.236Z,99512.31
2022-12-01T11:58:05.385Z,99513.19
2022-12-01T12:01:26.520Z,99503.84
2022-12-01T12:05:04.625Z,99506.28
2022-12-01T12:08:25.304Z,99509.56
2022-12-01T12:11:45.466Z,99507.09
2022-12-01T12:15:05.934Z,99509.28
2022-12-01T12:18:37.283Z,99512.31
2022-12-01T12:21:56.445Z,99504.63
2022-12-01T12:25:21.276Z,99511.53
2022-12-01T12:28:45.814Z,99513.19
2022-12-01T12:32:10.932Z,99499.44
2022-12-01T12:35:36.663Z,99503.84
2022-12-01T12:39:03.982Z,99508.25
2022-12-01T12:42:22.925Z,99502.47
2022-12-01T12:45:49.981Z,99502.47
2022-12-01T12:49:20.205Z,99503.84
2022-12-01T12:52:30.107Z,99503.31
2022-12-01T12:55:40.932Z,99500.56
2022-12-01T12:58:58.141Z,99507.69
2022-12-01T13:02:16.983Z,99513.47
2022-12-01T13:05:28.974Z,99513.22
2022-12-01T13:08:41.932Z,99517.63
2022-12-01T13:11:56.583Z,99507.47
2022-12-01T13:15:15.408Z,99511.88
2022-12-01T13:18:34.590Z,99514.34
2022-12-01T13:21:43.242Z,99509.13
2022-12-01T13:24:47.064Z,99511.88
2022-12-01T13:27:53.473Z,99512.97
2022-12-01T13:31:05.162Z,99518.72
2022-12-01T13:34:25.357Z,99514.63
2022-12-01T13:37:33.019Z,99511.31
2022-12-01T13:43:55.646Z,99515.72
2022-12-01T13:47:04.725Z,99518.75
2022-12-01T13:50:58.379Z,99516.56
2022-12-01T13:54:27.305Z,99517.66
2022-12-01T13:57:34.319Z,99509.41
2022-12-01T14:00:38.206Z,99517.66
2022-12-01T14:03:42.319Z,99508.84
2022-12-01T14:06:50.012Z,99514.34
2022-12-01T14:09:58.915Z,99509.69
2022-12-01T14:13:06.985Z,99512.69
2022-12-01T14:16:11.425Z,99524.78
2022-12-01T14:19:34.212Z,99520.66
2022-12-01T14:22:44.032Z,99520.91
2022-12-01T14:26:06.059Z,99524.53
2022-12-01T14:29:33.053Z,99531.13
2022-12-01T14:32:36.619Z,99526.44
2022-12-01T14:35:40.820Z,99521.22
2022-12-01T14:38:48.665Z,99511.06
2022-12-01T14:41:58.465Z,99520.13
2022-12-01T14:45:06.718Z,99527.28
2022-12-01T14:48:16.873Z,99522.06
2022-12-01T14:51:28.748Z,99524.78
2022-12-01T14:54:44.200Z,99511.59
2022-12-01T14:57:51.903Z,99512.16
2022-12-01T15:01:07.367Z,99507.16
2022-12-01T15:04:10.862Z,99509.13
2022-12-01T15:07:14.423Z,99505.00
2022-12-01T15:10:22.979Z,99514.06
2022-12-01T15:13:30.767Z,99517.63
2022-12-01T15:16:43.262Z,99515.72
2022-12-01T15:19:47.264Z,99512.44
2022-12-01T15:22:53.011Z,99517.94
2022-12-01T15:25:58.788Z,99520.38
2022-12-01T15:29:16.910Z,99523.13
2022-12-01T15:32:23.794Z,99519.28
2022-12-01T15:35:28.003Z,99520.94
2022-12-01T15:38:35.611Z,99522.84
2022-12-01T15:41:44.240Z,99517.66
2022-12-01T15:45:00.582Z,99516.28
2022-12-01T15:48:17.874Z,99518.75
2022-12-01T15:51:27.960Z,99519.84
2022-12-01T15:54:31.976Z,99521.22
2022-12-01T15:57:37.201Z,99512.16
2022-12-01T16:00:40.559Z,99517.34
2022-12-01T16:03:57.838Z,99512.66
2022-12-01T16:07:06.163Z,99513.25
2022-12-01T16:10:30.406Z,99514.34
2022-12-01T16:13:45.772Z,99523.69
2022-12-01T16:16:52.471Z,99520.94
2022-12-01T16:20:19.924Z,99524.53
2022-12-01T16:23:27.265Z,99522.03
2022-12-01T16:26:32.765Z,99523.72
2022-12-01T16:29:50.747Z,99520.13
2022-12-01T16:33:03.408Z,99516.28
2022-12-01T16:36:07.968Z,99523.69
2022-12-01T16:39:12.630Z,99515.47
2022-12-01T16:42:20.547Z,99522.06
2022-12-01T16:45:26.802Z,99517.94
2022-12-01T16:48:31.523Z,99516.00
2022-12-01T16:51:54.182Z,99521.78
2022-12-01T16:54:58.657Z,99519.84
2022-12-01T16:58:02.181Z,99518.19
2022-12-01T17:01:09.404Z,99511.88
2022-12-01T17:04:12.784Z,99509.41
2022-12-01T17:07:16.397Z,99512.97
2022-12-01T17:10:19.958Z,99507.75
2022-12-01T17:13:24.690Z,99510.50
2022-12-01T17:16:29.488Z,99514.06
2022-12-01T17:19:33.051Z,99515.44
2022-12-01T17:22:36.946Z,99515.44
2022-12-01T17:25:41.893Z,99525.88
2022-12-01T17:28:45.433Z,99517.63
2022-12-01T17:31:50.428Z,99519.03
2022-12-01T17:34:53.706Z,99515.44
2022-12-01T17:37:57.397Z,99507.50
2022-12-01T17:41:03.523Z,99513.53
2022-12-01T17:44:07.409Z,99512.41
2022-12-01T17:47:12.523Z,99505.00
2022-12-01T17:50:16.924Z,99507.75
2022-12-01T17:53:20.399Z,99506.94
2022-12-01T17:56:24.052Z,99501.44
2022-12-01T17:59:27.493Z,99503.38
2022-12-01T18:02:32.854Z,99498.16
2022-12-01T18:05:36.198Z,99505.03
2022-12-01T18:08:40.897Z,99506.94
2022-12-01T18:11:44.219Z,99512.97
2022-12-01T18:14:48.437Z,99494.03
2022-12-01T18:17:53.611Z,99495.94
2022-12-01T18:20:57.235Z,99496.50
2022-12-01T18:24:04.056Z,99503.38
2022-12-01T18:27:07.815Z,99505.81
2022-12-01T18:30:13.110Z,99513.34
2022-12-01T18:33:18.214Z,99508.84
2022-12-01T18:36:24.978Z,99517.31
2022-12-01T18:39:28.905Z,99518.88
2022-12-01T18:42:32.916Z,99514.97
2022-12-01T18:45:40.115Z,99518.63
2022-12-01T18:48:48.027Z,99516.09
2022-12-01T18:51:51.774Z,99517.50
2022-12-01T18:54:55.305Z,99520.56
2022-12-01T18:57:58.918Z,99518.09
2022-12-01T19:01:03.530Z,99521.75
2022-12-01T19:04:12.126Z,99522.91
2022-12-01T19:07:15.483Z,99521.25
2022-12-01T19:10:19.188Z,99524.59
2022-12-01T19:13:22.409Z,99527.53
2022-12-01T19:16:26.791Z,99529.91
2022-12-01T19:19:37.111Z,99533.88
2022-12-01T19:22:41.355Z,99529.03
2022-12-01T19:25:44.697Z,99520.09
2022-12-01T19:28:49.896Z,99525.53
2022-12-01T19:31:53.532Z,99522.44
2022-12-01T19:34:58.657Z,99518.72
2022-12-01T19:38:02.052Z,99515.34
2022-12-01T19:41:06.295Z,99519.09
2022-12-01T19:44:10.806Z,99514.56
2022-12-01T19:47:19.071Z,99522.25
2022-12-01T19:50:26.484Z,99507.13
2022-12-01T19:53:33.543Z,99511.22
2022-12-01T19:56:37.675Z,99510.91
2022-12-01T19:59:42.921Z,99508.13
2022-12-01T20:02:46.213Z,99517.28
2022-12-01T20:05:51.278Z,99513.03
2022-12-01T20:08:58.131Z,99509.66
2022-12-01T20:12:01.836Z,99503.75
2022-12-01T20:15:08.644Z,99499.03
2022-12-01T20:18:14.569Z,99505.09
2022-12-01T20:21:23.029Z,99501.06
2022-12-01T20:24:26.622Z,99499.28
2022-12-01T20:27:30.645Z,99505.81
2022-12-01T20:30:34.269Z,99502.41
2022-12-01T20:33:37.994Z,99495.13
2022-12-01T20:36:43.516Z,99496.44
2022-12-01T20:39:47.393Z,99493.31
2022-12-01T20:42:51.125Z,99490.06
2022-12-01T20:45:54.432Z,99486.13
2022-12-01T20:48:58.997Z,99489.59
2022-12-01T20:52:03.548Z,99487.31
2022-12-01T20:55:08.642Z,99484.88
2022-12-01T20:58:13.432Z,99488.16
2022-12-01T21:01:18.703Z,99487.00
2022-12-01T21:04:22.336Z,99494.03
2022-12-01T21:07:27.565Z,99487.66
2022-12-01T21:10:31.017Z,99493.88
2022-12-01T21:13:42.131Z,99498.75
2022-12-01T21:16:49.180Z,99494.03
2022-12-01T21:20:02.478Z,99493.22
2022-12-01T21:23:13.827Z,99491.94
2022-12-01T21:26:20.189Z,99494.19
2022-12-01T21:29:25.889Z,99492.56
2022-12-01T21:32:32.612Z,99497.91
2022-12-01T21:35:36.001Z,99492.69
2022-12-01T21:38:43.243Z,99491.88
2022-12-01T21:41:46.470Z,99496.09
2022-12-01T21:44:50.780Z,99494.97
2022-12-01T21:47:58.359Z,99497.72
2022-12-01T21:51:12.909Z,99497.41
2022-12-01T21:54:22.640Z,99501.00
2022-12-01T21:57:43.055Z,99497.41
2022-12-01T22:00:46.983Z,99499.69
2022-12-01T22:03:51.617Z,99489.41
2022-12-01T22:06:57.356Z,99495.16
2022-12-01T22:10:08.865Z,99492.06
2022-12-01T22:13:13.886Z,99488.97
2022-12-01T22:16:21.879Z,99486.69
2022-12-01T22:19:32.639Z,99492.41
2022-12-01T22:22:39.436Z,99487.97
2022-12-01T22:25:44.371Z,99485.72
2022-12-01T22:28:48.833Z,99481.78
2022-12-01T22:31:52.494Z,99486.22
2022-12-01T22:35:01.527Z,99481.78
2022-12-01T22:38:32.808Z,99484.56
2022-12-01T22:41:37.800Z,99483.44
2022-12-01T22:44:42.602Z,99477.38
2022-12-01T22:47:46.360Z,99476.09
2022-12-01T22:50:51.886Z,99477.53
2022-12-01T22:54:03.085Z,99477.34
2022-12-01T22:57:28.383Z,99478.63
2022-12-01T23:00:32.030Z,99474.56
2022-12-01T23:03:35.270Z,99470.16
2022-12-01T23:07:10.541Z,99474.66
2022-12-01T23:10:17.721Z,99471.19
2022-12-01T23:13:25.568Z,99467.59
2022-12-01T23:16:28.947Z,99474.31
2022-12-01T23:19:33.435Z,99457.31
2022-12-01T23:22:36.653Z,99464.03
2022-12-01T23:25:41.270Z,99460.75
2022-12-01T23:28:47.355Z,99462.72
2022-12-01T23:31:51.644Z,99465.63
2022-12-01T23:34:59.903Z,99460.69
2022-12-01T23:38:04.445Z,99467.88
2022-12-01T23:41:14.766Z,99465.63
2022-12-01T23:44:25.900Z,99455.84
2022-12-01T23:47:31.206Z,99457.28
2022-12-01T23:50:35.155Z,99462.84
2022-12-01T23:53:41.389Z,99460.56
2022-12-01T23:56:51.919Z,99462.22
